City of Colorado Springs Municipal Airport
KCOS : now visible

Aeroporto :











RITROVATECI SU...

 
LOGIN :

Iscrizione | Disclaimer

   EN    FR    IT 

 









Sommario :    VFR   VFR Marginale   IFR   IFR Intensivo   IFR Molto Intensivo
Visibilità : 
Base nubi : 
>= 8 km
>= 3000ft
5 / 8 km
1000 / 3000 ft
1500m / 5 km
500 / 1000 ft
800 / 1500m
200 / 500 ft
< 800m
< 200 ft
Simboli :   Temporali  Nebbia  Neve Forte  Precipitazioni Forti  Vento > 20 kt







- Altitudine del aeroporto : 6187 ft
- Codice IATA : COS


KCOS - City of Colorado Springs Municipal

ULTIMO METAR :
  • 201554Z 34007KT 10SM SCT150 SCT250 32/01 A3024 RMK AO2 SLP125 T03220011

METARs OBSOLETI :
  • 201454Z 33010KT 10SM SCT150 SCT250 29/01 A3022 RMK AO2 SLP124 T02940011 51010
  • 201354Z 34011KT 10SM FEW150 FEW250 26/01 A3021 RMK AO2 SLP120 T02610011

TAF KCOS
Valido dal 20 a 12 ore il 21 a 12 ore UTC


201121Z 2012/2112 34007KT P6SM SCT130
FM201700 09006KT P6SM SCT130
FM201900 10009KT P6SM SCT110 SCT200
FM210100 01010KT P6SM SCT100 SCT200
FM211000 36008KT P6SM FEW100 BKN200
Nessun NOTAM noto per questo aeroporto.



MetMap, La meteo Aeronautica in un colpo d'occhio ! - Copyright ORBIFLY Dicembre 2007 - Disclaimer

ORBIFLY MET'MAP TEAM :

Programmazione e sviluppo : Alexandra Zaïnal
Concezione e sviluppo : Baudouin d'Aumeries
Co-Programmazione e sviluppo : Marc-Olivier Méhu
Supporto tecnico e logistico : Manuel Goepfert
Aiuto per la traduzione : Arnaldo La Scala

Contatto : metmap@orbifly.com




FONTI E CREDITI :

   NOAA       Earth
Advisory